createdAt,value
2019-01-26T00:00:30.259Z,76.40
2019-01-26T00:02:56.467Z,76.70
2019-01-26T00:05:22.725Z,76.70
2019-01-26T00:07:50.400Z,76.70
2019-01-26T00:10:16.681Z,76.90
2019-01-26T00:12:42.869Z,76.90
2019-01-26T00:15:10.057Z,77.20
2019-01-26T00:17:36.280Z,77.10
2019-01-26T00:20:08.551Z,77.10
2019-01-26T00:22:34.719Z,77.30
2019-01-26T00:25:01.514Z,77.40
2019-01-26T00:27:27.646Z,77.40
2019-01-26T00:29:53.839Z,77.30
2019-01-26T00:32:20.079Z,77.30
2019-01-26T00:34:46.343Z,77.40
2019-01-26T00:37:12.536Z,77.40
2019-01-26T00:39:38.964Z,77.40
2019-01-26T00:42:05.134Z,77.50
2019-01-26T00:44:31.326Z,77.60
2019-01-26T00:46:57.515Z,77.40
2019-01-26T00:49:23.707Z,77.50
2019-01-26T00:51:49.871Z,77.50
2019-01-26T00:54:16.067Z,77.40
2019-01-26T00:56:42.259Z,77.40
2019-01-26T00:59:08.524Z,78.20
2019-01-26T01:01:34.818Z,77.50
2019-01-26T01:04:01.014Z,77.60
2019-01-26T01:06:27.189Z,77.70
2019-01-26T01:08:53.396Z,77.80
2019-01-26T01:11:19.570Z,77.90
2019-01-26T01:13:46.164Z,77.90
2019-01-26T01:16:12.431Z,77.90
2019-01-26T01:18:38.607Z,78.10
2019-01-26T01:21:04.806Z,78.20
2019-01-26T01:23:30.970Z,77.90
2019-01-26T01:25:57.140Z,77.70
2019-01-26T01:28:28.475Z,77.40
2019-01-26T01:30:54.688Z,77.30
2019-01-26T01:33:21.145Z,77.00
2019-01-26T01:35:47.392Z,76.80
2019-01-26T01:38:13.720Z,76.90
2019-01-26T01:40:40.270Z,76.90
2019-01-26T01:43:06.477Z,76.90
2019-01-26T01:45:32.879Z,76.80
2019-01-26T01:47:59.039Z,76.80
2019-01-26T01:50:25.216Z,76.80
2019-01-26T01:52:51.435Z,76.80
2019-01-26T01:55:17.721Z,76.80
2019-01-26T01:57:44.032Z,77.10
2019-01-26T02:00:20.938Z,77.00
2019-01-26T02:02:47.129Z,76.90
2019-01-26T02:05:13.745Z,77.00
2019-01-26T02:07:40.309Z,77.10
2019-01-26T02:10:10.946Z,77.20
2019-01-26T02:12:37.103Z,78.00
2019-01-26T02:15:06.412Z,77.40
2019-01-26T02:17:32.586Z,77.40
2019-01-26T02:19:58.761Z,77.40
2019-01-26T02:22:25.062Z,77.50
2019-01-26T02:24:51.228Z,77.70
2019-01-26T02:27:17.435Z,77.70
2019-01-26T02:29:43.592Z,77.70
2019-01-26T02:32:09.810Z,77.70
2019-01-26T02:34:35.992Z,77.90
2019-01-26T02:37:02.193Z,77.80
2019-01-26T02:39:28.365Z,78.00
2019-01-26T02:41:54.565Z,78.10
2019-01-26T02:44:20.731Z,78.20
2019-01-26T02:46:46.961Z,78.30
2019-01-26T02:49:13.152Z,78.20
2019-01-26T02:51:39.357Z,78.30
2019-01-26T02:54:05.564Z,78.50
2019-01-26T02:56:32.076Z,79.40
2019-01-26T02:58:58.264Z,79.10
2019-01-26T03:01:24.435Z,80.30
2019-01-26T03:03:50.701Z,79.90
2019-01-26T03:06:16.882Z,80.30
2019-01-26T03:08:43.073Z,80.50
2019-01-26T03:11:09.305Z,80.70
2019-01-26T03:13:37.763Z,80.90
2019-01-26T03:16:04.344Z,81.00
2019-01-26T03:18:30.601Z,81.10
2019-01-26T03:20:56.760Z,81.10
2019-01-26T03:23:23.061Z,81.10
2019-01-26T03:25:49.250Z,81.20
2019-01-26T03:28:15.439Z,81.20
2019-01-26T03:30:41.626Z,81.30
2019-01-26T03:33:07.819Z,81.20
2019-01-26T03:35:34.039Z,81.20
2019-01-26T03:38:00.234Z,81.20
2019-01-26T03:40:26.422Z,81.20
2019-01-26T03:42:52.655Z,81.00
2019-01-26T03:45:19.580Z,80.70
2019-01-26T03:47:46.475Z,80.40
2019-01-26T03:50:14.639Z,80.20
2019-01-26T03:52:40.794Z,80.70
2019-01-26T03:55:11.802Z,80.00
2019-01-26T03:57:38.210Z,80.00
2019-01-26T04:00:10.175Z,80.10
2019-01-26T04:02:36.670Z,80.30
2019-01-26T04:05:05.767Z,81.30
2019-01-26T04:07:31.991Z,80.80
2019-01-26T04:09:58.217Z,80.90
2019-01-26T04:12:24.653Z,81.10
2019-01-26T04:14:51.141Z,81.10
2019-01-26T04:17:21.867Z,81.30
2019-01-26T04:19:45.638Z,81.40
2019-01-26T04:22:11.813Z,81.50
2019-01-26T04:24:38.304Z,81.60
2019-01-26T04:27:04.726Z,81.60
2019-01-26T04:29:30.920Z,81.70
2019-01-26T04:31:57.450Z,81.80
2019-01-26T04:34:23.643Z,81.90
2019-01-26T04:36:49.902Z,81.90
2019-01-26T04:39:16.131Z,81.90
2019-01-26T04:41:42.294Z,82.00
2019-01-26T04:44:08.508Z,81.90
2019-01-26T04:46:34.878Z,81.90
2019-01-26T04:49:01.068Z,82.00
2019-01-26T04:51:27.246Z,82.10
2019-01-26T04:53:53.449Z,82.30
2019-01-26T04:56:19.602Z,82.40
2019-01-26T04:58:45.781Z,82.70
2019-01-26T05:01:12.273Z,82.80
2019-01-26T05:03:38.575Z,82.90
2019-01-26T05:06:04.780Z,82.90
2019-01-26T05:08:31.063Z,82.60
2019-01-26T05:10:57.226Z,83.30
2019-01-26T05:13:23.449Z,83.60
2019-01-26T05:15:49.619Z,83.60
2019-01-26T05:18:16.448Z,83.70
2019-01-26T05:20:42.652Z,83.70
2019-01-26T05:23:09.285Z,83.70
2019-01-26T05:25:35.712Z,83.70
2019-01-26T05:28:02.433Z,83.80
2019-01-26T05:30:28.692Z,83.70
2019-01-26T05:32:54.851Z,83.70
2019-01-26T05:35:21.487Z,83.60
2019-01-26T05:37:47.692Z,83.60
2019-01-26T05:40:16.573Z,83.60
2019-01-26T05:42:43.357Z,83.40
2019-01-26T05:45:14.247Z,83.40
2019-01-26T05:47:48.088Z,84.10
2019-01-26T05:50:16.212Z,83.40
2019-01-26T05:52:42.395Z,83.40
2019-01-26T05:55:08.887Z,83.40
2019-01-26T05:57:35.183Z,83.50
2019-01-26T06:00:03.083Z,83.50
2019-01-26T06:02:29.254Z,83.50
2019-01-26T06:04:55.485Z,83.60
2019-01-26T06:07:21.660Z,83.50
2019-01-26T06:09:48.111Z,83.50
2019-01-26T06:12:14.297Z,83.50
2019-01-26T06:14:40.885Z,83.60
2019-01-26T06:17:07.071Z,83.50
2019-01-26T06:19:33.825Z,83.60
2019-01-26T06:22:00.114Z,83.60
2019-01-26T06:24:33.025Z,83.60
2019-01-26T06:26:59.290Z,83.70
2019-01-26T06:29:25.566Z,83.70
2019-01-26T06:31:51.875Z,83.70
2019-01-26T06:34:18.037Z,83.80
2019-01-26T06:36:44.243Z,83.80
2019-01-26T06:39:10.732Z,83.80
2019-01-26T06:41:36.931Z,83.90
2019-01-26T06:44:03.209Z,83.90
2019-01-26T06:46:29.384Z,84.00
2019-01-26T06:48:56.947Z,84.00
2019-01-26T06:51:23.171Z,84.10
2019-01-26T06:53:49.349Z,84.10
2019-01-26T06:56:15.561Z,84.10
2019-01-26T06:58:41.754Z,84.00
2019-01-26T07:01:07.940Z,84.00
2019-01-26T07:03:34.200Z,84.00
2019-01-26T07:06:02.335Z,84.80
2019-01-26T07:08:28.533Z,84.00
2019-01-26T07:10:54.737Z,83.90
2019-01-26T07:13:20.937Z,84.00
2019-01-26T07:15:47.184Z,84.00
2019-01-26T07:18:13.359Z,83.90
2019-01-26T07:20:39.650Z,84.00
2019-01-26T07:23:06.031Z,84.00
2019-01-26T07:25:32.515Z,83.40
2019-01-26T07:27:58.702Z,83.90
2019-01-26T07:30:25.833Z,84.00
2019-01-26T07:32:52.537Z,84.00
2019-01-26T07:35:18.786Z,84.00
2019-01-26T07:37:45.068Z,83.90
2019-01-26T07:40:16.714Z,83.90
2019-01-26T07:42:43.111Z,84.00
2019-01-26T07:45:11.526Z,84.10
2019-01-26T07:47:37.705Z,84.20
2019-01-26T07:50:09.069Z,84.30
2019-01-26T07:52:35.224Z,84.30
2019-01-26T07:55:01.438Z,84.40
2019-01-26T07:57:27.657Z,84.50
2019-01-26T07:59:55.184Z,84.60
2019-01-26T08:02:21.502Z,84.80
2019-01-26T08:04:47.708Z,85.00
2019-01-26T08:07:14.180Z,85.20
2019-01-26T08:09:40.398Z,85.50
2019-01-26T08:12:06.596Z,85.80
2019-01-26T08:14:32.833Z,86.10
2019-01-26T08:17:01.333Z,86.50
2019-01-26T08:19:27.538Z,87.50
2019-01-26T08:21:53.831Z,87.10
2019-01-26T08:24:20.037Z,87.30
2019-01-26T08:26:46.266Z,87.60
2019-01-26T08:29:12.460Z,87.80
2019-01-26T08:31:38.751Z,88.10
2019-01-26T08:34:05.032Z,88.40
2019-01-26T08:36:31.395Z,88.80
2019-01-26T08:38:57.557Z,89.00
2019-01-26T08:41:23.795Z,89.10
2019-01-26T08:43:54.389Z,89.30
2019-01-26T08:46:23.986Z,89.60
2019-01-26T08:48:50.824Z,89.80
2019-01-26T08:51:17.609Z,90.00
2019-01-26T08:53:46.373Z,90.40
2019-01-26T08:56:12.720Z,90.20
2019-01-26T08:58:38.991Z,90.30
2019-01-26T09:01:05.361Z,90.40
2019-01-26T09:03:33.636Z,90.50
2019-01-26T09:06:02.124Z,90.60
2019-01-26T09:08:28.471Z,90.70
2019-01-26T09:10:54.885Z,90.70
2019-01-26T09:13:21.120Z,90.70
2019-01-26T09:15:47.457Z,90.80
2019-01-26T09:18:13.682Z,90.80
2019-01-26T09:20:39.874Z,90.90
2019-01-26T09:23:06.137Z,90.90
2019-01-26T09:25:32.333Z,90.90
2019-01-26T09:27:58.812Z,90.90
2019-01-26T09:30:25.008Z,91.00
2019-01-26T09:32:51.289Z,91.00
2019-01-26T09:35:17.865Z,91.10
2019-01-26T09:37:45.225Z,91.10
2019-01-26T09:40:21.115Z,91.20
2019-01-26T09:42:47.383Z,91.20
2019-01-26T09:45:18.705Z,91.20
2019-01-26T09:47:45.490Z,91.30
2019-01-26T09:50:14.772Z,91.40
2019-01-26T09:52:41.872Z,91.30
2019-01-26T09:55:15.417Z,91.40
2019-01-26T09:57:41.944Z,91.40
2019-01-26T10:00:15.684Z,91.50
2019-01-26T10:02:41.970Z,91.50
2019-01-26T10:05:10.028Z,91.50
2019-01-26T10:07:38.774Z,91.50
2019-01-26T10:10:10.467Z,91.60
2019-01-26T10:12:37.923Z,91.50
2019-01-26T10:15:15.697Z,91.50
2019-01-26T10:17:46.046Z,91.60
2019-01-26T10:20:23.804Z,91.50
2019-01-26T10:22:50.007Z,91.50
2019-01-26T10:25:19.556Z,91.50
2019-01-26T10:27:45.887Z,91.50
2019-01-26T10:30:22.297Z,91.50
2019-01-26T10:32:49.130Z,91.50
2019-01-26T10:35:15.735Z,91.50
2019-01-26T10:37:45.450Z,91.60
2019-01-26T10:40:13.669Z,91.60
2019-01-26T10:42:39.940Z,91.60
2019-01-26T10:45:08.036Z,91.60
2019-01-26T10:47:34.255Z,91.60
2019-01-26T10:50:00.489Z,91.60
2019-01-26T10:52:27.039Z,91.90
2019-01-26T10:54:53.496Z,91.60
2019-01-26T10:57:20.038Z,91.60
2019-01-26T10:59:46.302Z,91.50
2019-01-26T11:02:12.635Z,91.50
2019-01-26T11:04:38.921Z,91.50
2019-01-26T11:07:05.110Z,91.60
2019-01-26T11:09:31.365Z,91.60
2019-01-26T11:11:57.567Z,91.70
2019-01-26T11:14:23.795Z,91.70
2019-01-26T11:16:49.991Z,91.70
2019-01-26T11:19:16.483Z,91.70
2019-01-26T11:21:42.681Z,91.70
2019-01-26T11:24:08.949Z,91.70
2019-01-26T11:26:35.120Z,91.70
2019-01-26T11:29:01.481Z,91.70
2019-01-26T11:31:28.299Z,91.60
2019-01-26T11:33:54.620Z,91.70
2019-01-26T11:36:20.758Z,91.70
2019-01-26T11:38:49.858Z,91.70
2019-01-26T11:41:16.131Z,91.70
2019-01-26T11:43:42.603Z,91.80
2019-01-26T11:46:19.400Z,91.80
2019-01-26T11:48:46.601Z,91.80
2019-01-26T11:51:20.592Z,91.90
2019-01-26T11:53:50.887Z,91.90
2019-01-26T11:56:31.162Z,91.90
2019-01-26T11:58:58.892Z,92.00
2019-01-26T12:01:45.211Z,92.00
2019-01-26T12:04:34.539Z,92.00
2019-01-26T12:07:02.634Z,92.00
2019-01-26T12:09:28.852Z,92.10
2019-01-26T12:11:55.081Z,92.10
2019-01-26T12:14:21.639Z,92.10
2019-01-26T12:16:47.844Z,92.00
2019-01-26T12:19:14.351Z,92.00
2019-01-26T12:21:41.896Z,91.90
2019-01-26T12:24:08.100Z,91.80
2019-01-26T12:26:35.557Z,91.70
2019-01-26T12:29:03.498Z,91.70
2019-01-26T12:31:29.786Z,91.60
2019-01-26T12:33:56.024Z,91.50
2019-01-26T12:36:22.242Z,91.50
2019-01-26T12:38:48.491Z,91.50
2019-01-26T12:41:14.627Z,91.60
2019-01-26T12:43:40.964Z,91.60
2019-01-26T12:46:07.161Z,91.60
2019-01-26T12:48:33.512Z,91.60
2019-01-26T12:50:59.768Z,91.60
2019-01-26T12:53:25.931Z,91.70
2019-01-26T12:55:52.682Z,91.60
2019-01-26T12:58:18.960Z,91.70
2019-01-26T13:00:45.139Z,91.70
2019-01-26T13:03:11.436Z,91.80
2019-01-26T13:05:37.659Z,91.70
2019-01-26T13:08:04.387Z,91.70
2019-01-26T13:10:48.657Z,91.70
2019-01-26T13:13:14.951Z,91.60
2019-01-26T13:15:41.250Z,91.60
2019-01-26T13:18:08.630Z,91.60
2019-01-26T13:20:34.872Z,91.60
2019-01-26T13:23:01.460Z,91.60
2019-01-26T13:25:27.668Z,91.60
2019-01-26T13:27:53.851Z,91.60
2019-01-26T13:30:22.803Z,91.50
2019-01-26T13:32:49.098Z,91.50
2019-01-26T13:35:15.623Z,91.60
2019-01-26T13:37:42.010Z,91.60
2019-01-26T13:40:16.157Z,91.60
2019-01-26T13:42:42.352Z,91.60
2019-01-26T13:45:12.702Z,91.70
2019-01-26T13:47:40.062Z,91.60
2019-01-26T13:50:08.272Z,91.60
2019-01-26T13:52:34.809Z,91.60
2019-01-26T13:55:01.036Z,91.70
2019-01-26T13:57:27.351Z,91.70
2019-01-26T13:59:53.619Z,91.70
2019-01-26T14:02:19.795Z,91.70
2019-01-26T14:04:46.033Z,91.70
2019-01-26T14:07:12.233Z,91.70
2019-01-26T14:09:38.462Z,91.70
2019-01-26T14:12:04.638Z,91.80
2019-01-26T14:14:31.389Z,91.80
2019-01-26T14:16:57.580Z,91.90
2019-01-26T14:19:23.800Z,91.90
2019-01-26T14:21:50.249Z,91.90
2019-01-26T14:24:16.465Z,91.90
2019-01-26T14:26:49.526Z,91.90
2019-01-26T14:29:10.759Z,91.90
2019-01-26T14:31:37.244Z,91.90
2019-01-26T14:34:03.465Z,92.00
2019-01-26T14:36:29.731Z,92.00
2019-01-26T14:38:55.914Z,92.00
2019-01-26T14:41:25.145Z,92.00
2019-01-26T14:43:51.331Z,92.00
2019-01-26T14:46:17.830Z,92.00
2019-01-26T14:48:44.020Z,92.00
2019-01-26T14:51:11.438Z,92.00
2019-01-26T14:53:37.988Z,92.00
2019-01-26T14:56:04.202Z,92.00
2019-01-26T14:58:30.807Z,92.00
2019-01-26T15:00:57.213Z,91.90
2019-01-26T15:03:23.375Z,91.90
2019-01-26T15:05:49.628Z,91.90
2019-01-26T15:08:16.916Z,91.90
2019-01-26T15:10:43.227Z,92.00
2019-01-26T15:13:09.386Z,92.00
2019-01-26T15:15:35.640Z,92.00
2019-01-26T15:18:02.008Z,92.00
2019-01-26T15:20:35.955Z,91.90
2019-01-26T15:23:04.298Z,92.00
2019-01-26T15:25:30.515Z,92.00
2019-01-26T15:27:56.671Z,91.90
2019-01-26T15:30:30.352Z,92.00
2019-01-26T15:32:56.814Z,92.00
2019-01-26T15:35:23.410Z,92.00
2019-01-26T15:37:49.803Z,92.00
2019-01-26T15:40:16.040Z,92.00
2019-01-26T15:42:42.246Z,92.00
2019-01-26T15:45:13.890Z,92.00
2019-01-26T15:47:40.058Z,92.00
2019-01-26T15:50:13.149Z,92.00
2019-01-26T15:52:38.341Z,92.00
2019-01-26T15:55:12.974Z,92.00
2019-01-26T15:57:39.179Z,92.00
2019-01-26T16:00:14.454Z,92.10
2019-01-26T16:02:40.703Z,92.10
2019-01-26T16:05:07.688Z,92.10
2019-01-26T16:07:33.943Z,92.10
2019-01-26T16:10:00.271Z,92.20
2019-01-26T16:12:26.468Z,92.10
2019-01-26T16:14:58.396Z,92.20
2019-01-26T16:17:24.603Z,92.10
2019-01-26T16:19:50.864Z,92.10
2019-01-26T16:22:24.579Z,92.10
2019-01-26T16:25:10.839Z,92.10
2019-01-26T16:27:37.131Z,92.10
2019-01-26T16:30:24.252Z,92.10
2019-01-26T16:32:50.496Z,92.10
2019-01-26T16:35:17.534Z,92.10
2019-01-26T16:37:51.050Z,92.10
2019-01-26T16:40:28.193Z,92.10
2019-01-26T16:42:54.501Z,92.10
2019-01-26T16:45:27.689Z,92.10
2019-01-26T16:47:54.607Z,92.10
2019-01-26T16:50:27.840Z,92.20
2019-01-26T16:52:54.355Z,92.20
2019-01-26T16:55:21.071Z,92.20
2019-01-26T16:57:47.266Z,92.20
2019-01-26T17:00:32.748Z,92.20
2019-01-26T17:02:59.280Z,92.20
2019-01-26T17:05:26.000Z,92.20
2019-01-26T17:07:52.461Z,92.20
2019-01-26T17:10:20.147Z,92.30
2019-01-26T17:12:46.377Z,92.20
2019-01-26T17:15:13.053Z,92.20
2019-01-26T17:17:39.303Z,92.50
2019-01-26T17:20:22.347Z,92.20
2019-01-26T17:22:48.584Z,92.50
2019-01-26T17:25:14.789Z,92.20
2019-01-26T17:27:41.015Z,92.20
2019-01-26T17:30:15.868Z,92.20
2019-01-26T17:32:42.429Z,92.20
2019-01-26T17:35:09.910Z,92.20
2019-01-26T17:37:36.160Z,92.20
2019-01-26T17:40:10.507Z,92.50
2019-01-26T17:42:36.748Z,92.20
2019-01-26T17:45:07.552Z,92.20
2019-01-26T17:47:34.028Z,92.30
2019-01-26T17:50:00.233Z,92.20
2019-01-26T17:52:26.473Z,92.30
2019-01-26T17:54:52.636Z,92.30
2019-01-26T17:57:18.864Z,92.20
2019-01-26T17:59:45.289Z,92.20
2019-01-26T18:02:11.967Z,92.20
2019-01-26T18:04:38.148Z,92.20
2019-01-26T18:07:07.133Z,92.20
2019-01-26T18:09:33.354Z,92.20
2019-01-26T18:11:59.958Z,92.10
2019-01-26T18:14:26.129Z,92.10
2019-01-26T18:16:52.489Z,92.10
2019-01-26T18:19:18.964Z,92.10
2019-01-26T18:21:45.117Z,92.10
2019-01-26T18:24:11.436Z,92.10
2019-01-26T18:26:37.883Z,92.10
2019-01-26T18:29:04.115Z,92.10
2019-01-26T18:31:30.354Z,92.10
2019-01-26T18:33:56.670Z,92.10
2019-01-26T18:36:22.879Z,92.10
2019-01-26T18:38:49.331Z,92.10
2019-01-26T18:41:15.541Z,92.10
2019-01-26T18:43:41.765Z,92.10
2019-01-26T18:46:07.938Z,92.10
2019-01-26T18:48:34.220Z,92.10
2019-01-26T18:51:00.379Z,92.10
2019-01-26T18:53:26.621Z,92.10
2019-01-26T18:55:52.805Z,92.10
2019-01-26T18:58:19.035Z,92.20
2019-01-26T19:00:46.625Z,92.20
2019-01-26T19:03:24.607Z,92.20
2019-01-26T19:05:54.481Z,92.20
2019-01-26T19:08:20.680Z,92.20
2019-01-26T19:10:47.504Z,92.20
2019-01-26T19:13:13.763Z,92.20
2019-01-26T19:15:39.936Z,92.20
2019-01-26T19:18:11.955Z,92.20
2019-01-26T19:20:38.142Z,92.10
2019-01-26T19:23:04.373Z,92.20
2019-01-26T19:25:30.605Z,92.20
2019-01-26T19:27:57.399Z,92.20
2019-01-26T19:30:23.971Z,92.10
2019-01-26T19:32:50.128Z,92.10
2019-01-26T19:35:16.463Z,92.10
2019-01-26T19:37:43.202Z,92.10
2019-01-26T19:40:19.691Z,92.10
2019-01-26T19:42:46.173Z,92.00
2019-01-26T19:45:19.501Z,92.00
2019-01-26T19:47:45.667Z,92.00
2019-01-26T19:50:15.999Z,92.00
2019-01-26T19:52:42.343Z,92.00
2019-01-26T19:55:09.278Z,92.10
2019-01-26T19:57:35.457Z,92.30
2019-01-26T20:00:08.042Z,92.10
2019-01-26T20:02:34.288Z,92.10
2019-01-26T20:05:00.517Z,92.10
2019-01-26T20:07:27.038Z,92.20
2019-01-26T20:09:53.361Z,92.20
2019-01-26T20:12:19.841Z,92.30
2019-01-26T20:14:46.365Z,92.30
2019-01-26T20:17:12.523Z,92.20
2019-01-26T20:19:38.799Z,92.30
2019-01-26T20:22:04.981Z,92.30
2019-01-26T20:24:31.231Z,92.30
2019-01-26T20:26:57.544Z,92.30
2019-01-26T20:29:23.826Z,92.30
2019-01-26T20:31:50.088Z,92.30
2019-01-26T20:34:16.512Z,92.30
2019-01-26T20:36:42.848Z,92.30
2019-01-26T20:39:09.060Z,92.30
2019-01-26T20:41:35.747Z,92.30
2019-01-26T20:44:02.055Z,92.30
2019-01-26T20:46:28.217Z,92.30
2019-01-26T20:48:54.471Z,92.20
2019-01-26T20:51:24.814Z,92.30
2019-01-26T20:53:48.794Z,92.20
2019-01-26T20:56:14.967Z,92.20
2019-01-26T20:58:41.387Z,92.20
2019-01-26T21:01:07.757Z,92.20
2019-01-26T21:03:34.276Z,92.20
2019-01-26T21:06:00.748Z,92.20
2019-01-26T21:08:27.225Z,92.10
2019-01-26T21:10:53.432Z,92.30
2019-01-26T21:13:19.619Z,92.10
2019-01-26T21:15:46.321Z,92.10
2019-01-26T21:18:12.548Z,92.10
2019-01-26T21:20:38.781Z,92.10
2019-01-26T21:23:05.039Z,92.10
2019-01-26T21:25:31.555Z,92.10
2019-01-26T21:27:57.771Z,92.10
2019-01-26T21:30:26.839Z,92.10
2019-01-26T21:32:53.546Z,92.00
2019-01-26T21:35:20.742Z,92.00
2019-01-26T21:37:46.958Z,92.00
2019-01-26T21:40:20.105Z,92.00
2019-01-26T21:42:46.479Z,92.00
2019-01-26T21:45:14.888Z,92.00
2019-01-26T21:47:41.088Z,92.00
2019-01-26T21:50:14.887Z,92.00
2019-01-26T21:52:41.412Z,92.00
2019-01-26T21:55:08.697Z,92.00
2019-01-26T21:57:34.858Z,91.90
2019-01-26T22:00:01.280Z,91.90
2019-01-26T22:02:27.793Z,91.90
2019-01-26T22:04:54.023Z,91.90
2019-01-26T22:07:20.486Z,91.90
2019-01-26T22:09:47.084Z,91.80
2019-01-26T22:12:13.254Z,91.80
2019-01-26T22:14:39.461Z,91.80
2019-01-26T22:17:05.648Z,91.80
2019-01-26T22:19:31.801Z,91.80
2019-01-26T22:21:58.014Z,91.80
2019-01-26T22:24:24.238Z,91.80
2019-01-26T22:26:50.388Z,91.80
2019-01-26T22:29:16.562Z,91.80
2019-01-26T22:31:43.074Z,91.80
2019-01-26T22:34:09.231Z,91.80
2019-01-26T22:36:35.428Z,91.70
2019-01-26T22:39:01.614Z,91.80
2019-01-26T22:41:27.841Z,91.80
2019-01-26T22:43:53.997Z,92.10
2019-01-26T22:46:20.210Z,91.80
2019-01-26T22:48:46.680Z,91.80
2019-01-26T22:51:12.911Z,91.70
2019-01-26T22:53:39.135Z,91.60
2019-01-26T22:56:05.425Z,91.60
2019-01-26T22:58:31.594Z,91.50
2019-01-26T23:01:04.010Z,91.50
2019-01-26T23:03:53.667Z,91.50
2019-01-26T23:06:46.283Z,91.50
2019-01-26T23:09:24.352Z,91.60
2019-01-26T23:12:10.866Z,91.70
2019-01-26T23:15:04.870Z,91.60
2019-01-26T23:17:51.363Z,91.70
2019-01-26T23:20:26.385Z,91.70
2019-01-26T23:23:29.240Z,91.70
2019-01-26T23:26:09.482Z,91.80
2019-01-26T23:28:47.300Z,91.80
2019-01-26T23:31:17.234Z,91.80
2019-01-26T23:33:44.530Z,91.80
2019-01-26T23:36:12.052Z,91.80
2019-01-26T23:38:38.320Z,91.80
2019-01-26T23:41:04.495Z,91.80
2019-01-26T23:43:30.680Z,91.80
2019-01-26T23:45:56.872Z,91.70
2019-01-26T23:48:23.076Z,91.70
2019-01-26T23:50:49.303Z,91.70
2019-01-26T23:53:15.493Z,91.70
2019-01-26T23:55:41.658Z,91.60
2019-01-26T23:58:07.859Z,91.60
